sensor_id;sensor_type;location;lat;lon;timestamp;temperature;humidity
52889;DHT22;41413;52.770;6.892;2023-08-12T00:01:17;20.40;99.90
52889;DHT22;41413;52.770;6.892;2023-08-12T00:03:47;20.30;99.90
52889;DHT22;41413;52.770;6.892;2023-08-12T00:06:15;20.40;99.90
52889;DHT22;41413;52.770;6.892;2023-08-12T00:08:42;20.40;99.90
52889;DHT22;41413;52.770;6.892;2023-08-12T00:11:09;20.40;99.90
52889;DHT22;41413;52.770;6.892;2023-08-12T00:13:36;20.30;99.90
52889;DHT22;41413;52.770;6.892;2023-08-12T00:16:03;20.30;99.90
52889;DHT22;41413;52.770;6.892;2023-08-12T00:18:30;20.30;99.90
52889;DHT22;41413;52.770;6.892;2023-08-12T00:21:09;20.20;99.90
52889;DHT22;41413;52.770;6.892;2023-08-12T00:23:38;20.30;99.90
52889;DHT22;41413;52.770;6.892;2023-08-12T00:26:07;20.20;99.90
52889;DHT22;41413;52.770;6.892;2023-08-12T00:28:34;20.20;99.90
52889;DHT22;41413;52.770;6.892;2023-08-12T00:31:01;20.20;99.90
52889;DHT22;41413;52.770;6.892;2023-08-12T00:33:28;20.20;99.90
52889;DHT22;41413;52.770;6.892;2023-08-12T00:35:55;20.20;99.90
52889;DHT22;41413;52.770;6.892;2023-08-12T00:38:22;20.20;99.90
52889;DHT22;41413;52.770;6.892;2023-08-12T00:40:49;20.20;99.90
52889;DHT22;41413;52.770;6.892;2023-08-12T00:43:15;20.20;99.90
52889;DHT22;41413;52.770;6.892;2023-08-12T00:45:42;20.20;99.90
52889;DHT22;41413;52.770;6.892;2023-08-12T00:48:10;20.20;99.90
52889;DHT22;41413;52.770;6.892;2023-08-12T00:50:41;20.20;99.90
52889;DHT22;41413;52.770;6.892;2023-08-12T00:53:09;20.10;99.90
52889;DHT22;41413;52.770;6.892;2023-08-12T00:55:36;20.20;99.90
52889;DHT22;41413;52.770;6.892;2023-08-12T00:58:03;20.20;99.90
52889;DHT22;41413;52.770;6.892;2023-08-12T01:00:31;20.20;99.90
52889;DHT22;41413;52.770;6.892;2023-08-12T01:03:00;20.10;99.90
52889;DHT22;41413;52.770;6.892;2023-08-12T01:05:28;20.20;99.90
52889;DHT22;41413;52.770;6.892;2023-08-12T01:07:56;20.10;99.90
52889;DHT22;41413;52.770;6.892;2023-08-12T01:10:25;20.00;99.90
52889;DHT22;41413;52.770;6.892;2023-08-12T01:13:13;20.00;99.90
52889;DHT22;41413;52.770;6.892;2023-08-12T01:15:43;20.00;99.90
52889;DHT22;41413;52.770;6.892;2023-08-12T01:18:11;20.00;99.90
52889;DHT22;41413;52.770;6.892;2023-08-12T01:20:39;20.00;99.90
52889;DHT22;41413;52.770;6.892;2023-08-12T01:23:13;20.00;99.90
52889;DHT22;41413;52.770;6.892;2023-08-12T01:25:41;20.00;99.90
52889;DHT22;41413;52.770;6.892;2023-08-12T01:28:08;20.00;99.90
52889;DHT22;41413;52.770;6.892;2023-08-12T01:31:08;19.90;99.90
52889;DHT22;41413;52.770;6.892;2023-08-12T01:33:49;20.00;99.90
52889;DHT22;41413;52.770;6.892;2023-08-12T01:36:19;19.90;99.90
52889;DHT22;41413;52.770;6.892;2023-08-12T01:38:51;19.90;99.90
52889;DHT22;41413;52.770;6.892;2023-08-12T01:41:18;19.90;99.90
52889;DHT22;41413;52.770;6.892;2023-08-12T01:43:46;19.90;99.90
52889;DHT22;41413;52.770;6.892;2023-08-12T01:46:13;19.90;99.90
52889;DHT22;41413;52.770;6.892;2023-08-12T01:48:39;19.90;99.90
52889;DHT22;41413;52.770;6.892;2023-08-12T01:51:06;19.90;99.90
52889;DHT22;41413;52.770;6.892;2023-08-12T01:53:33;19.90;99.90
52889;DHT22;41413;52.770;6.892;2023-08-12T01:56:00;20.00;99.90
52889;DHT22;41413;52.770;6.892;2023-08-12T01:58:26;19.90;99.90
52889;DHT22;41413;52.770;6.892;2023-08-12T02:00:53;19.90;99.90
52889;DHT22;41413;52.770;6.892;2023-08-12T02:03:20;19.90;99.90
52889;DHT22;41413;52.770;6.892;2023-08-12T02:05:47;19.90;99.90
52889;DHT22;41413;52.770;6.892;2023-08-12T02:08:14;19.90;99.90
52889;DHT22;41413;52.770;6.892;2023-08-12T02:10:41;19.90;99.90
52889;DHT22;41413;52.770;6.892;2023-08-12T02:13:07;19.80;99.90
52889;DHT22;41413;52.770;6.892;2023-08-12T02:15:34;19.80;99.90
52889;DHT22;41413;52.770;6.892;2023-08-12T02:18:01;19.80;99.90
52889;DHT22;41413;52.770;6.892;2023-08-12T02:20:28;19.80;99.90
52889;DHT22;41413;52.770;6.892;2023-08-12T02:22:55;19.80;99.90
52889;DHT22;41413;52.770;6.892;2023-08-12T02:25:21;19.80;99.90
52889;DHT22;41413;52.770;6.892;2023-08-12T02:27:48;19.70;99.90
52889;DHT22;41413;52.770;6.892;2023-08-12T02:30:15;19.80;99.90
52889;DHT22;41413;52.770;6.892;2023-08-12T02:32:42;19.80;99.90
52889;DHT22;41413;52.770;6.892;2023-08-12T02:35:10;19.70;99.90
52889;DHT22;41413;52.770;6.892;2023-08-12T02:37:37;19.70;99.90
52889;DHT22;41413;52.770;6.892;2023-08-12T02:40:04;19.70;99.90
52889;DHT22;41413;52.770;6.892;2023-08-12T02:42:31;19.70;99.90
52889;DHT22;41413;52.770;6.892;2023-08-12T02:44:58;19.80;99.90
52889;DHT22;41413;52.770;6.892;2023-08-12T02:47:27;19.70;99.90
52889;DHT22;41413;52.770;6.892;2023-08-12T02:49:54;19.70;99.90
52889;DHT22;41413;52.770;6.892;2023-08-12T02:52:21;19.70;99.90
52889;DHT22;41413;52.770;6.892;2023-08-12T02:54:47;19.80;99.90
52889;DHT22;41413;52.770;6.892;2023-08-12T02:57:14;19.80;99.90
52889;DHT22;41413;52.770;6.892;2023-08-12T02:59:41;19.80;99.90
52889;DHT22;41413;52.770;6.892;2023-08-12T03:02:08;19.80;99.90
52889;DHT22;41413;52.770;6.892;2023-08-12T03:04:35;19.80;99.90
52889;DHT22;41413;52.770;6.892;2023-08-12T03:07:01;19.80;99.90
52889;DHT22;41413;52.770;6.892;2023-08-12T03:09:29;19.70;99.90
52889;DHT22;41413;52.770;6.892;2023-08-12T03:11:56;19.80;99.90
52889;DHT22;41413;52.770;6.892;2023-08-12T03:14:23;19.80;99.90
52889;DHT22;41413;52.770;6.892;2023-08-12T03:16:50;19.70;99.90
52889;DHT22;41413;52.770;6.892;2023-08-12T03:19:16;19.70;99.90
52889;DHT22;41413;52.770;6.892;2023-08-12T03:21:43;19.70;99.90
52889;DHT22;41413;52.770;6.892;2023-08-12T03:24:10;19.70;99.90
52889;DHT22;41413;52.770;6.892;2023-08-12T03:26:36;19.70;99.90
52889;DHT22;41413;52.770;6.892;2023-08-12T03:29:03;19.70;99.90
52889;DHT22;41413;52.770;6.892;2023-08-12T03:31:30;19.70;99.90
52889;DHT22;41413;52.770;6.892;2023-08-12T03:33:57;19.60;99.90
52889;DHT22;41413;52.770;6.892;2023-08-12T03:36:24;19.60;99.90
52889;DHT22;41413;52.770;6.892;2023-08-12T03:38:51;19.60;99.90
52889;DHT22;41413;52.770;6.892;2023-08-12T03:41:17;19.50;99.90
52889;DHT22;41413;52.770;6.892;2023-08-12T03:43:44;19.60;99.90
52889;DHT22;41413;52.770;6.892;2023-08-12T03:46:11;19.60;99.90
52889;DHT22;41413;52.770;6.892;2023-08-12T03:48:38;19.50;99.90
52889;DHT22;41413;52.770;6.892;2023-08-12T03:51:04;19.50;99.90
52889;DHT22;41413;52.770;6.892;2023-08-12T03:53:31;19.50;99.90
52889;DHT22;41413;52.770;6.892;2023-08-12T03:55:58;19.50;99.90
52889;DHT22;41413;52.770;6.892;2023-08-12T03:58:25;19.50;99.90
52889;DHT22;41413;52.770;6.892;2023-08-12T04:00:51;19.40;99.90
52889;DHT22;41413;52.770;6.892;2023-08-12T04:03:18;19.40;99.90
52889;DHT22;41413;52.770;6.892;2023-08-12T04:05:52;19.40;99.90
52889;DHT22;41413;52.770;6.892;2023-08-12T04:08:20;19.40;99.90
52889;DHT22;41413;52.770;6.892;2023-08-12T04:10:47;19.40;99.90
52889;DHT22;41413;52.770;6.892;2023-08-12T04:13:15;19.40;99.90
52889;DHT22;41413;52.770;6.892;2023-08-12T04:15:42;19.30;99.90
52889;DHT22;41413;52.770;6.892;2023-08-12T04:18:09;19.30;99.90
52889;DHT22;41413;52.770;6.892;2023-08-12T04:20:37;19.40;99.90
52889;DHT22;41413;52.770;6.892;2023-08-12T04:23:04;19.30;99.90
52889;DHT22;41413;52.770;6.892;2023-08-12T04:25:31;19.30;99.90
52889;DHT22;41413;52.770;6.892;2023-08-12T04:27:58;19.30;99.90
52889;DHT22;41413;52.770;6.892;2023-08-12T04:30:25;19.30;99.90
52889;DHT22;41413;52.770;6.892;2023-08-12T04:32:53;19.30;99.90
52889;DHT22;41413;52.770;6.892;2023-08-12T04:35:19;19.30;99.90
52889;DHT22;41413;52.770;6.892;2023-08-12T04:37:46;19.30;99.90
52889;DHT22;41413;52.770;6.892;2023-08-12T04:40:13;19.30;99.90
52889;DHT22;41413;52.770;6.892;2023-08-12T04:42:40;19.30;99.90
52889;DHT22;41413;52.770;6.892;2023-08-12T04:45:07;19.30;99.90
52889;DHT22;41413;52.770;6.892;2023-08-12T04:47:34;19.30;99.90
52889;DHT22;41413;52.770;6.892;2023-08-12T04:50:01;19.30;99.90
52889;DHT22;41413;52.770;6.892;2023-08-12T04:52:28;19.30;99.90
52889;DHT22;41413;52.770;6.892;2023-08-12T04:54:54;19.30;99.90
52889;DHT22;41413;52.770;6.892;2023-08-12T04:57:21;19.40;99.90
52889;DHT22;41413;52.770;6.892;2023-08-12T04:59:48;19.40;99.90
52889;DHT22;41413;52.770;6.892;2023-08-12T05:02:14;19.40;99.90
52889;DHT22;41413;52.770;6.892;2023-08-12T05:04:41;19.40;99.90
52889;DHT22;41413;52.770;6.892;2023-08-12T05:07:08;19.30;99.90
52889;DHT22;41413;52.770;6.892;2023-08-12T05:09:35;19.30;99.90
52889;DHT22;41413;52.770;6.892;2023-08-12T05:12:02;19.40;99.90
52889;DHT22;41413;52.770;6.892;2023-08-12T05:14:29;19.40;99.90
52889;DHT22;41413;52.770;6.892;2023-08-12T05:16:55;19.40;99.90
52889;DHT22;41413;52.770;6.892;2023-08-12T05:19:22;19.40;99.90
52889;DHT22;41413;52.770;6.892;2023-08-12T05:21:49;19.40;99.90
52889;DHT22;41413;52.770;6.892;2023-08-12T05:24:15;19.40;99.90
52889;DHT22;41413;52.770;6.892;2023-08-12T05:26:43;19.40;99.90
52889;DHT22;41413;52.770;6.892;2023-08-12T05:29:09;19.40;99.90
52889;DHT22;41413;52.770;6.892;2023-08-12T05:31:36;19.40;99.90
52889;DHT22;41413;52.770;6.892;2023-08-12T05:34:04;19.40;99.90
52889;DHT22;41413;52.770;6.892;2023-08-12T05:36:30;19.40;99.90
52889;DHT22;41413;52.770;6.892;2023-08-12T05:38:58;19.50;99.90
52889;DHT22;41413;52.770;6.892;2023-08-12T05:41:25;19.50;99.90
52889;DHT22;41413;52.770;6.892;2023-08-12T05:43:52;19.40;99.90
52889;DHT22;41413;52.770;6.892;2023-08-12T05:46:18;19.50;99.90
52889;DHT22;41413;52.770;6.892;2023-08-12T05:48:45;19.60;99.90
52889;DHT22;41413;52.770;6.892;2023-08-12T05:51:12;19.50;99.90
52889;DHT22;41413;52.770;6.892;2023-08-12T05:53:39;19.60;99.90
52889;DHT22;41413;52.770;6.892;2023-08-12T05:56:05;19.60;99.90
52889;DHT22;41413;52.770;6.892;2023-08-12T05:58:32;19.60;99.90
52889;DHT22;41413;52.770;6.892;2023-08-12T06:00:59;19.60;99.90
52889;DHT22;41413;52.770;6.892;2023-08-12T06:03:26;19.70;99.90
52889;DHT22;41413;52.770;6.892;2023-08-12T06:05:53;19.70;99.90
52889;DHT22;41413;52.770;6.892;2023-08-12T06:08:19;19.80;99.90
52889;DHT22;41413;52.770;6.892;2023-08-12T06:10:46;19.90;99.90
52889;DHT22;41413;52.770;6.892;2023-08-12T06:13:13;20.10;99.90
52889;DHT22;41413;52.770;6.892;2023-08-12T06:15:40;20.10;99.90
52889;DHT22;41413;52.770;6.892;2023-08-12T06:18:07;20.20;99.90
52889;DHT22;41413;52.770;6.892;2023-08-12T06:20:34;20.40;99.90
52889;DHT22;41413;52.770;6.892;2023-08-12T06:23:01;20.40;99.90
52889;DHT22;41413;52.770;6.892;2023-08-12T06:25:27;20.40;99.90
52889;DHT22;41413;52.770;6.892;2023-08-12T06:27:54;20.40;99.90
52889;DHT22;41413;52.770;6.892;2023-08-12T06:30:21;20.40;99.90
52889;DHT22;41413;52.770;6.892;2023-08-12T06:32:48;20.40;99.90
52889;DHT22;41413;52.770;6.892;2023-08-12T06:35:15;20.40;99.90
52889;DHT22;41413;52.770;6.892;2023-08-12T06:37:41;20.40;99.90
52889;DHT22;41413;52.770;6.892;2023-08-12T06:40:08;20.30;99.90
52889;DHT22;41413;52.770;6.892;2023-08-12T06:42:35;20.30;99.90
52889;DHT22;41413;52.770;6.892;2023-08-12T06:45:02;20.40;99.90
52889;DHT22;41413;52.770;6.892;2023-08-12T06:47:30;20.30;99.90
52889;DHT22;41413;52.770;6.892;2023-08-12T06:49:58;20.30;99.90
52889;DHT22;41413;52.770;6.892;2023-08-12T06:52:24;20.40;99.90
52889;DHT22;41413;52.770;6.892;2023-08-12T06:54:51;20.30;99.90
52889;DHT22;41413;52.770;6.892;2023-08-12T06:57:18;20.30;99.90
52889;DHT22;41413;52.770;6.892;2023-08-12T06:59:45;20.30;99.90
52889;DHT22;41413;52.770;6.892;2023-08-12T07:02:12;20.30;99.90
52889;DHT22;41413;52.770;6.892;2023-08-12T07:04:39;20.30;99.90
52889;DHT22;41413;52.770;6.892;2023-08-12T07:07:06;20.30;99.90
52889;DHT22;41413;52.770;6.892;2023-08-12T07:09:33;20.30;99.90
52889;DHT22;41413;52.770;6.892;2023-08-12T07:12:00;20.30;99.90
52889;DHT22;41413;52.770;6.892;2023-08-12T07:14:28;20.30;99.90
52889;DHT22;41413;52.770;6.892;2023-08-12T07:16:55;20.30;99.90
52889;DHT22;41413;52.770;6.892;2023-08-12T07:19:22;20.40;99.90
52889;DHT22;41413;52.770;6.892;2023-08-12T07:21:49;20.40;99.90
52889;DHT22;41413;52.770;6.892;2023-08-12T07:24:16;20.40;99.90
52889;DHT22;41413;52.770;6.892;2023-08-12T07:26:43;20.40;99.90
52889;DHT22;41413;52.770;6.892;2023-08-12T07:29:09;20.40;99.90
52889;DHT22;41413;52.770;6.892;2023-08-12T07:31:36;20.40;99.90
52889;DHT22;41413;52.770;6.892;2023-08-12T07:34:03;20.40;99.90
52889;DHT22;41413;52.770;6.892;2023-08-12T07:36:31;20.40;99.90
52889;DHT22;41413;52.770;6.892;2023-08-12T07:38:59;20.40;99.90
52889;DHT22;41413;52.770;6.892;2023-08-12T07:41:26;20.40;99.90
52889;DHT22;41413;52.770;6.892;2023-08-12T07:43:54;20.40;99.90
52889;DHT22;41413;52.770;6.892;2023-08-12T07:46:21;20.40;99.90
52889;DHT22;41413;52.770;6.892;2023-08-12T07:48:48;20.30;99.90
52889;DHT22;41413;52.770;6.892;2023-08-12T07:51:14;20.30;99.90
52889;DHT22;41413;52.770;6.892;2023-08-12T07:53:41;20.30;99.90
52889;DHT22;41413;52.770;6.892;2023-08-12T07:56:08;20.30;99.90
52889;DHT22;41413;52.770;6.892;2023-08-12T07:58:35;20.30;99.90
52889;DHT22;41413;52.770;6.892;2023-08-12T08:01:05;20.30;99.90
52889;DHT22;41413;52.770;6.892;2023-08-12T08:03:32;20.20;99.90
52889;DHT22;41413;52.770;6.892;2023-08-12T08:05:58;20.10;99.90
52889;DHT22;41413;52.770;6.892;2023-08-12T08:08:25;20.10;99.90
52889;DHT22;41413;52.770;6.892;2023-08-12T08:10:52;20.10;99.90
52889;DHT22;41413;52.770;6.892;2023-08-12T08:13:18;20.10;99.90
52889;DHT22;41413;52.770;6.892;2023-08-12T08:15:46;20.10;99.90
52889;DHT22;41413;52.770;6.892;2023-08-12T08:18:12;20.10;99.90
52889;DHT22;41413;52.770;6.892;2023-08-12T08:20:42;20.10;99.90
52889;DHT22;41413;52.770;6.892;2023-08-12T08:23:11;20.10;99.90
52889;DHT22;41413;52.770;6.892;2023-08-12T08:25:38;20.10;99.90
52889;DHT22;41413;52.770;6.892;2023-08-12T08:28:05;20.00;99.90
52889;DHT22;41413;52.770;6.892;2023-08-12T08:30:32;20.00;99.90
52889;DHT22;41413;52.770;6.892;2023-08-12T08:32:58;20.00;99.90
52889;DHT22;41413;52.770;6.892;2023-08-12T08:35:25;20.00;99.90
52889;DHT22;41413;52.770;6.892;2023-08-12T08:37:53;20.00;99.90
52889;DHT22;41413;52.770;6.892;2023-08-12T08:40:20;20.00;99.90
52889;DHT22;41413;52.770;6.892;2023-08-12T08:42:51;20.00;99.90
52889;DHT22;41413;52.770;6.892;2023-08-12T08:45:21;20.00;99.90
52889;DHT22;41413;52.770;6.892;2023-08-12T08:47:49;19.90;99.90
52889;DHT22;41413;52.770;6.892;2023-08-12T08:50:17;20.00;99.90
52889;DHT22;41413;52.770;6.892;2023-08-12T08:52:45;19.90;99.90
52889;DHT22;41413;52.770;6.892;2023-08-12T08:55:12;19.90;99.90
52889;DHT22;41413;52.770;6.892;2023-08-12T08:57:39;19.90;99.90
52889;DHT22;41413;52.770;6.892;2023-08-12T09:00:14;19.90;99.90
52889;DHT22;41413;52.770;6.892;2023-08-12T09:02:47;19.90;99.90
52889;DHT22;41413;52.770;6.892;2023-08-12T09:05:16;20.00;99.90
52889;DHT22;41413;52.770;6.892;2023-08-12T09:07:44;20.00;99.90
52889;DHT22;41413;52.770;6.892;2023-08-12T09:10:11;20.00;99.90
52889;DHT22;41413;52.770;6.892;2023-08-12T09:12:41;20.00;99.90
52889;DHT22;41413;52.770;6.892;2023-08-12T09:15:09;19.90;99.90
52889;DHT22;41413;52.770;6.892;2023-08-12T09:17:36;19.90;99.90
52889;DHT22;41413;52.770;6.892;2023-08-12T09:20:03;19.80;99.90
52889;DHT22;41413;52.770;6.892;2023-08-12T09:22:34;19.80;99.90
52889;DHT22;41413;52.770;6.892;2023-08-12T09:25:02;19.70;99.90
52889;DHT22;41413;52.770;6.892;2023-08-12T09:27:31;19.70;99.90
52889;DHT22;41413;52.770;6.892;2023-08-12T09:29:59;19.60;99.90
52889;DHT22;41413;52.770;6.892;2023-08-12T09:32:29;19.60;99.90
52889;DHT22;41413;52.770;6.892;2023-08-12T09:34:56;19.60;99.90
52889;DHT22;41413;52.770;6.892;2023-08-12T09:37:24;19.50;99.90
52889;DHT22;41413;52.770;6.892;2023-08-12T09:39:52;19.50;99.90
52889;DHT22;41413;52.770;6.892;2023-08-12T09:42:19;19.50;99.90
52889;DHT22;41413;52.770;6.892;2023-08-12T09:44:46;19.40;99.90
52889;DHT22;41413;52.770;6.892;2023-08-12T09:47:13;19.30;99.90
52889;DHT22;41413;52.770;6.892;2023-08-12T09:49:40;19.30;99.90
52889;DHT22;41413;52.770;6.892;2023-08-12T09:52:08;19.20;99.90
52889;DHT22;41413;52.770;6.892;2023-08-12T09:54:35;19.20;99.90
52889;DHT22;41413;52.770;6.892;2023-08-12T09:57:04;19.10;99.90
52889;DHT22;41413;52.770;6.892;2023-08-12T09:59:34;19.10;99.90
52889;DHT22;41413;52.770;6.892;2023-08-12T10:02:04;19.10;99.90
52889;DHT22;41413;52.770;6.892;2023-08-12T10:04:37;19.10;99.90
52889;DHT22;41413;52.770;6.892;2023-08-12T10:07:08;19.10;99.90
52889;DHT22;41413;52.770;6.892;2023-08-12T10:09:39;19.10;99.90
52889;DHT22;41413;52.770;6.892;2023-08-12T10:12:07;19.20;99.90
52889;DHT22;41413;52.770;6.892;2023-08-12T10:14:34;19.10;99.90
52889;DHT22;41413;52.770;6.892;2023-08-12T10:17:02;19.20;99.90
52889;DHT22;41413;52.770;6.892;2023-08-12T10:19:32;19.20;99.90
52889;DHT22;41413;52.770;6.892;2023-08-12T10:22:02;19.20;99.90
52889;DHT22;41413;52.770;6.892;2023-08-12T10:24:30;19.30;99.90
52889;DHT22;41413;52.770;6.892;2023-08-12T10:26:57;19.30;99.90
52889;DHT22;41413;52.770;6.892;2023-08-12T10:29:25;19.30;99.90
52889;DHT22;41413;52.770;6.892;2023-08-12T10:31:52;19.30;99.90
52889;DHT22;41413;52.770;6.892;2023-08-12T10:36:47;19.30;99.90
52889;DHT22;41413;52.770;6.892;2023-08-12T10:39:28;19.40;99.90
52889;DHT22;41413;52.770;6.892;2023-08-12T10:41:58;19.40;99.90
52889;DHT22;41413;52.770;6.892;2023-08-12T10:44:59;19.30;99.90
52889;DHT22;41413;52.770;6.892;2023-08-12T10:47:25;19.40;99.90
52889;DHT22;41413;52.770;6.892;2023-08-12T10:49:53;19.30;99.90
52889;DHT22;41413;52.770;6.892;2023-08-12T10:52:30;19.40;99.90
52889;DHT22;41413;52.770;6.892;2023-08-12T10:55:16;19.50;99.90
52889;DHT22;41413;52.770;6.892;2023-08-12T10:57:43;19.60;99.90
52889;DHT22;41413;52.770;6.892;2023-08-12T11:00:14;19.60;99.90
52889;DHT22;41413;52.770;6.892;2023-08-12T11:02:44;19.60;99.90
52889;DHT22;41413;52.770;6.892;2023-08-12T11:05:13;19.60;99.90
52889;DHT22;41413;52.770;6.892;2023-08-12T11:07:42;19.70;99.90
52889;DHT22;41413;52.770;6.892;2023-08-12T11:10:12;19.80;99.90
52889;DHT22;41413;52.770;6.892;2023-08-12T11:12:41;19.90;99.90
52889;DHT22;41413;52.770;6.892;2023-08-12T11:15:09;20.00;99.90
52889;DHT22;41413;52.770;6.892;2023-08-12T11:17:40;20.20;99.90
52889;DHT22;41413;52.770;6.892;2023-08-12T11:20:11;20.30;99.90
52889;DHT22;41413;52.770;6.892;2023-08-12T11:22:42;20.40;99.90
52889;DHT22;41413;52.770;6.892;2023-08-12T11:25:11;20.40;99.90
52889;DHT22;41413;52.770;6.892;2023-08-12T11:27:42;20.30;99.90
52889;DHT22;41413;52.770;6.892;2023-08-12T11:30:14;20.20;99.90
52889;DHT22;41413;52.770;6.892;2023-08-12T11:32:47;20.10;99.90
52889;DHT22;41413;52.770;6.892;2023-08-12T11:35:15;20.00;99.90
52889;DHT22;41413;52.770;6.892;2023-08-12T11:37:45;20.00;99.90
52889;DHT22;41413;52.770;6.892;2023-08-12T11:40:14;20.00;99.90
52889;DHT22;41413;52.770;6.892;2023-08-12T11:42:43;19.90;99.90
52889;DHT22;41413;52.770;6.892;2023-08-12T11:45:11;19.90;99.90
52889;DHT22;41413;52.770;6.892;2023-08-12T11:47:40;20.00;99.90
52889;DHT22;41413;52.770;6.892;2023-08-12T11:50:11;19.90;99.90
52889;DHT22;41413;52.770;6.892;2023-08-12T11:52:39;20.00;99.90
52889;DHT22;41413;52.770;6.892;2023-08-12T11:55:06;20.00;99.90
52889;DHT22;41413;52.770;6.892;2023-08-12T11:57:34;20.20;99.90
52889;DHT22;41413;52.770;6.892;2023-08-12T12:00:03;20.30;99.90
52889;DHT22;41413;52.770;6.892;2023-08-12T12:02:46;20.40;99.90
52889;DHT22;41413;52.770;6.892;2023-08-12T12:05:13;20.40;99.90
52889;DHT22;41413;52.770;6.892;2023-08-12T12:07:41;20.50;99.90
52889;DHT22;41413;52.770;6.892;2023-08-12T12:10:11;20.70;99.90
52889;DHT22;41413;52.770;6.892;2023-08-12T12:12:38;20.70;99.90
52889;DHT22;41413;52.770;6.892;2023-08-12T12:15:06;20.80;99.90
52889;DHT22;41413;52.770;6.892;2023-08-12T12:17:38;20.80;99.90
52889;DHT22;41413;52.770;6.892;2023-08-12T12:20:07;20.90;99.90
52889;DHT22;41413;52.770;6.892;2023-08-12T12:22:37;21.10;99.90
52889;DHT22;41413;52.770;6.892;2023-08-12T12:25:09;21.30;99.90
52889;DHT22;41413;52.770;6.892;2023-08-12T12:27:40;21.30;99.90
52889;DHT22;41413;52.770;6.892;2023-08-12T12:30:11;21.20;99.90
52889;DHT22;41413;52.770;6.892;2023-08-12T12:32:38;21.00;99.90
52889;DHT22;41413;52.770;6.892;2023-08-12T12:35:05;21.20;99.90
52889;DHT22;41413;52.770;6.892;2023-08-12T12:37:36;20.90;99.90
52889;DHT22;41413;52.770;6.892;2023-08-12T12:40:04;20.80;99.90
52889;DHT22;41413;52.770;6.892;2023-08-12T12:42:31;20.80;99.90
52889;DHT22;41413;52.770;6.892;2023-08-12T12:44:58;20.90;99.90
52889;DHT22;41413;52.770;6.892;2023-08-12T12:47:25;21.00;99.90
52889;DHT22;41413;52.770;6.892;2023-08-12T12:49:52;20.80;99.90
52889;DHT22;41413;52.770;6.892;2023-08-12T12:52:18;20.70;99.90
52889;DHT22;41413;52.770;6.892;2023-08-12T12:54:45;20.80;99.90
52889;DHT22;41413;52.770;6.892;2023-08-12T12:57:12;20.90;99.90
52889;DHT22;41413;52.770;6.892;2023-08-12T12:59:39;20.90;99.90
52889;DHT22;41413;52.770;6.892;2023-08-12T13:02:05;21.20;99.90
52889;DHT22;41413;52.770;6.892;2023-08-12T13:04:32;21.40;99.90
52889;DHT22;41413;52.770;6.892;2023-08-12T13:07:00;21.40;99.90
52889;DHT22;41413;52.770;6.892;2023-08-12T13:09:27;21.60;99.90
52889;DHT22;41413;52.770;6.892;2023-08-12T13:11:53;21.60;99.90
52889;DHT22;41413;52.770;6.892;2023-08-12T13:14:23;21.60;99.90
52889;DHT22;41413;52.770;6.892;2023-08-12T13:16:50;21.40;99.90
52889;DHT22;41413;52.770;6.892;2023-08-12T13:19:17;21.50;99.90
52889;DHT22;41413;52.770;6.892;2023-08-12T13:21:44;21.50;99.90
52889;DHT22;41413;52.770;6.892;2023-08-12T13:24:11;21.60;99.90
52889;DHT22;41413;52.770;6.892;2023-08-12T13:26:38;21.60;99.90
52889;DHT22;41413;52.770;6.892;2023-08-12T13:29:04;21.60;99.90
52889;DHT22;41413;52.770;6.892;2023-08-12T13:31:31;21.60;99.90
52889;DHT22;41413;52.770;6.892;2023-08-12T13:33:58;21.70;99.90
52889;DHT22;41413;52.770;6.892;2023-08-12T13:36:25;21.50;99.90
52889;DHT22;41413;52.770;6.892;2023-08-12T13:38:52;21.40;99.90
52889;DHT22;41413;52.770;6.892;2023-08-12T13:41:19;21.70;99.90
52889;DHT22;41413;52.770;6.892;2023-08-12T13:43:46;21.80;99.90
52889;DHT22;41413;52.770;6.892;2023-08-12T13:46:12;21.80;99.90
52889;DHT22;41413;52.770;6.892;2023-08-12T13:48:39;22.00;99.90
52889;DHT22;41413;52.770;6.892;2023-08-12T13:51:09;22.00;99.90
52889;DHT22;41413;52.770;6.892;2023-08-12T13:53:36;22.00;99.90
52889;DHT22;41413;52.770;6.892;2023-08-12T13:56:03;22.00;99.90
52889;DHT22;41413;52.770;6.892;2023-08-12T13:58:29;22.00;99.90
52889;DHT22;41413;52.770;6.892;2023-08-12T14:00:56;22.00;99.90
52889;DHT22;41413;52.770;6.892;2023-08-12T14:03:24;21.70;99.90
52889;DHT22;41413;52.770;6.892;2023-08-12T14:05:50;21.80;99.90
52889;DHT22;41413;52.770;6.892;2023-08-12T14:08:17;21.90;99.90
52889;DHT22;41413;52.770;6.892;2023-08-12T14:10:46;21.90;99.90
52889;DHT22;41413;52.770;6.892;2023-08-12T14:13:13;21.90;99.90
52889;DHT22;41413;52.770;6.892;2023-08-12T14:15:40;21.90;99.90
52889;DHT22;41413;52.770;6.892;2023-08-12T14:18:07;21.90;99.90
52889;DHT22;41413;52.770;6.892;2023-08-12T14:20:34;21.90;99.90
52889;DHT22;41413;52.770;6.892;2023-08-12T14:23:01;22.00;99.90
52889;DHT22;41413;52.770;6.892;2023-08-12T14:25:28;22.10;99.90
52889;DHT22;41413;52.770;6.892;2023-08-12T14:27:55;22.30;99.90
52889;DHT22;41413;52.770;6.892;2023-08-12T14:30:24;22.30;99.90
52889;DHT22;41413;52.770;6.892;2023-08-12T14:32:52;22.20;99.90
52889;DHT22;41413;52.770;6.892;2023-08-12T14:35:19;22.10;99.90
52889;DHT22;41413;52.770;6.892;2023-08-12T14:37:46;22.20;99.90
52889;DHT22;41413;52.770;6.892;2023-08-12T14:40:13;22.10;99.90
52889;DHT22;41413;52.770;6.892;2023-08-12T14:42:39;22.20;99.90
52889;DHT22;41413;52.770;6.892;2023-08-12T14:45:07;22.30;99.90
52889;DHT22;41413;52.770;6.892;2023-08-12T14:47:34;22.20;99.90
52889;DHT22;41413;52.770;6.892;2023-08-12T14:50:01;22.20;99.90
52889;DHT22;41413;52.770;6.892;2023-08-12T14:52:28;22.10;99.90
52889;DHT22;41413;52.770;6.892;2023-08-12T14:54:54;22.30;99.90
52889;DHT22;41413;52.770;6.892;2023-08-12T14:57:21;22.50;99.90
52889;DHT22;41413;52.770;6.892;2023-08-12T14:59:48;22.70;99.90
52889;DHT22;41413;52.770;6.892;2023-08-12T15:02:20;22.80;99.90
52889;DHT22;41413;52.770;6.892;2023-08-12T15:04:47;22.90;99.90
52889;DHT22;41413;52.770;6.892;2023-08-12T15:07:14;22.90;99.90
52889;DHT22;41413;52.770;6.892;2023-08-12T15:09:43;23.00;99.90
52889;DHT22;41413;52.770;6.892;2023-08-12T15:12:09;22.90;99.90
52889;DHT22;41413;52.770;6.892;2023-08-12T15:14:39;22.80;99.90
52889;DHT22;41413;52.770;6.892;2023-08-12T15:17:06;22.80;99.90
52889;DHT22;41413;52.770;6.892;2023-08-12T15:19:33;22.80;99.90
52889;DHT22;41413;52.770;6.892;2023-08-12T15:22:00;22.80;99.90
52889;DHT22;41413;52.770;6.892;2023-08-12T15:24:26;22.90;99.90
52889;DHT22;41413;52.770;6.892;2023-08-12T15:26:53;22.80;99.90
52889;DHT22;41413;52.770;6.892;2023-08-12T15:29:20;22.80;99.90
52889;DHT22;41413;52.770;6.892;2023-08-12T15:31:47;22.70;99.90
52889;DHT22;41413;52.770;6.892;2023-08-12T15:34:14;22.70;99.90
52889;DHT22;41413;52.770;6.892;2023-08-12T15:36:40;22.50;99.90